sensor_id;sensor_type;location;lat;lon;timestamp;P1;durP1;ratioP1;P2;durP2;ratioP2
17625;SDS011;8931;50.042;19.930;2022-07-22T00:00:32;22.47;;;20.47;;
17625;SDS011;8931;50.042;19.930;2022-07-22T00:01:33;22.90;;;20.23;;
17625;SDS011;8931;50.042;19.930;2022-07-22T00:02:36;22.33;;;19.97;;
17625;SDS011;8931;50.042;19.930;2022-07-22T00:03:36;25.23;;;20.70;;
17625;SDS011;8931;50.042;19.930;2022-07-22T00:04:38;22.97;;;20.57;;
17625;SDS011;8931;50.042;19.930;2022-07-22T00:05:39;22.90;;;20.37;;
17625;SDS011;8931;50.042;19.930;2022-07-22T00:06:41;21.70;;;19.73;;
17625;SDS011;8931;50.042;19.930;2022-07-22T00:07:44;22.57;;;20.17;;
17625;SDS011;8931;50.042;19.930;2022-07-22T00:08:47;21.70;;;19.83;;
17625;SDS011;8931;50.042;19.930;2022-07-22T00:09:48;23.23;;;20.40;;
17625;SDS011;8931;50.042;19.930;2022-07-22T00:10:50;23.43;;;20.67;;
17625;SDS011;8931;50.042;19.930;2022-07-22T00:11:50;22.77;;;20.17;;
17625;SDS011;8931;50.042;19.930;2022-07-22T00:12:53;22.60;;;20.40;;
17625;SDS011;8931;50.042;19.930;2022-07-22T00:13:55;22.07;;;20.07;;
17625;SDS011;8931;50.042;19.930;2022-07-22T00:14:57;22.50;;;20.33;;
17625;SDS011;8931;50.042;19.930;2022-07-22T00:16:00;24.07;;;20.33;;
17625;SDS011;8931;50.042;19.930;2022-07-22T00:17:03;21.90;;;19.90;;
17625;SDS011;8931;50.042;19.930;2022-07-22T00:18:04;24.07;;;20.63;;
17625;SDS011;8931;50.042;19.930;2022-07-22T00:19:05;22.43;;;20.20;;
17625;SDS011;8931;50.042;19.930;2022-07-22T00:20:07;22.27;;;20.17;;
17625;SDS011;8931;50.042;19.930;2022-07-22T00:21:10;23.30;;;20.63;;
17625;SDS011;8931;50.042;19.930;2022-07-22T00:22:10;22.00;;;19.77;;
17625;SDS011;8931;50.042;19.930;2022-07-22T00:23:12;22.13;;;20.17;;
17625;SDS011;8931;50.042;19.930;2022-07-22T00:24:14;22.67;;;20.33;;
17625;SDS011;8931;50.042;19.930;2022-07-22T00:25:16;25.73;;;19.83;;
17625;SDS011;8931;50.042;19.930;2022-07-22T00:26:17;27.93;;;20.60;;
17625;SDS011;8931;50.042;19.930;2022-07-22T00:27:18;22.93;;;20.60;;
17625;SDS011;8931;50.042;19.930;2022-07-22T00:28:20;25.13;;;21.43;;
17625;SDS011;8931;50.042;19.930;2022-07-22T00:29:23;23.60;;;20.70;;
17625;SDS011;8931;50.042;19.930;2022-07-22T00:30:26;22.50;;;20.10;;
17625;SDS011;8931;50.042;19.930;2022-07-22T00:31:29;22.13;;;19.93;;
17625;SDS011;8931;50.042;19.930;2022-07-22T00:32:31;22.70;;;20.43;;
17625;SDS011;8931;50.042;19.930;2022-07-22T00:33:32;22.37;;;20.37;;
17625;SDS011;8931;50.042;19.930;2022-07-22T00:34:34;23.57;;;20.70;;
17625;SDS011;8931;50.042;19.930;2022-07-22T00:35:37;29.60;;;21.20;;
17625;SDS011;8931;50.042;19.930;2022-07-22T00:36:38;25.90;;;21.00;;
17625;SDS011;8931;50.042;19.930;2022-07-22T00:37:40;24.40;;;20.40;;
17625;SDS011;8931;50.042;19.930;2022-07-22T00:38:41;23.50;;;21.20;;
17625;SDS011;8931;50.042;19.930;2022-07-22T00:39:44;23.17;;;20.80;;
17625;SDS011;8931;50.042;19.930;2022-07-22T00:40:44;22.37;;;20.40;;
17625;SDS011;8931;50.042;19.930;2022-07-22T00:41:47;22.30;;;19.97;;
17625;SDS011;8931;50.042;19.930;2022-07-22T00:42:49;22.53;;;20.30;;
17625;SDS011;8931;50.042;19.930;2022-07-22T00:43:58;23.13;;;20.20;;
17625;SDS011;8931;50.042;19.930;2022-07-22T00:45:02;22.43;;;20.10;;
17625;SDS011;8931;50.042;19.930;2022-07-22T00:46:04;21.87;;;19.87;;
17625;SDS011;8931;50.042;19.930;2022-07-22T00:47:05;22.03;;;20.13;;
17625;SDS011;8931;50.042;19.930;2022-07-22T00:48:07;22.80;;;20.50;;
17625;SDS011;8931;50.042;19.930;2022-07-22T00:49:11;23.63;;;20.27;;
17625;SDS011;8931;50.042;19.930;2022-07-22T00:50:12;22.57;;;20.27;;
17625;SDS011;8931;50.042;19.930;2022-07-22T00:51:21;22.17;;;20.23;;
17625;SDS011;8931;50.042;19.930;2022-07-22T00:52:24;23.50;;;20.43;;
17625;SDS011;8931;50.042;19.930;2022-07-22T00:53:25;24.27;;;21.20;;
17625;SDS011;8931;50.042;19.930;2022-07-22T00:54:26;23.33;;;20.93;;
17625;SDS011;8931;50.042;19.930;2022-07-22T00:55:30;24.53;;;20.00;;
17625;SDS011;8931;50.042;19.930;2022-07-22T00:56:32;22.77;;;20.60;;
17625;SDS011;8931;50.042;19.930;2022-07-22T00:57:34;22.00;;;19.80;;
17625;SDS011;8931;50.042;19.930;2022-07-22T00:58:36;22.20;;;20.27;;
17625;SDS011;8931;50.042;19.930;2022-07-22T00:59:37;22.33;;;20.17;;
17625;SDS011;8931;50.042;19.930;2022-07-22T01:00:38;22.67;;;19.93;;
17625;SDS011;8931;50.042;19.930;2022-07-22T01:01:39;21.67;;;19.77;;
17625;SDS011;8931;50.042;19.930;2022-07-22T01:02:41;21.57;;;19.77;;
17625;SDS011;8931;50.042;19.930;2022-07-22T01:03:42;22.33;;;20.33;;
17625;SDS011;8931;50.042;19.930;2022-07-22T01:04:43;23.20;;;20.70;;
17625;SDS011;8931;50.042;19.930;2022-07-22T01:05:47;22.27;;;20.07;;
17625;SDS011;8931;50.042;19.930;2022-07-22T01:06:50;22.77;;;20.50;;
17625;SDS011;8931;50.042;19.930;2022-07-22T01:07:52;22.10;;;20.00;;
17625;SDS011;8931;50.042;19.930;2022-07-22T01:08:52;22.77;;;20.40;;
17625;SDS011;8931;50.042;19.930;2022-07-22T01:09:55;22.60;;;20.60;;
17625;SDS011;8931;50.042;19.930;2022-07-22T01:11:07;22.30;;;20.20;;
17625;SDS011;8931;50.042;19.930;2022-07-22T01:12:12;22.03;;;20.03;;
17625;SDS011;8931;50.042;19.930;2022-07-22T01:13:14;22.20;;;20.23;;
17625;SDS011;8931;50.042;19.930;2022-07-22T01:14:15;22.60;;;20.47;;
17625;SDS011;8931;50.042;19.930;2022-07-22T01:15:16;21.83;;;19.70;;
17625;SDS011;8931;50.042;19.930;2022-07-22T01:16:17;22.10;;;20.13;;
17625;SDS011;8931;50.042;19.930;2022-07-22T01:17:19;24.17;;;20.33;;
17625;SDS011;8931;50.042;19.930;2022-07-22T01:18:21;23.33;;;20.73;;
17625;SDS011;8931;50.042;19.930;2022-07-22T01:19:23;22.80;;;20.50;;
17625;SDS011;8931;50.042;19.930;2022-07-22T01:20:25;21.50;;;19.67;;
17625;SDS011;8931;50.042;19.930;2022-07-22T01:21:27;24.47;;;20.20;;
17625;SDS011;8931;50.042;19.930;2022-07-22T01:22:27;22.10;;;19.70;;
17625;SDS011;8931;50.042;19.930;2022-07-22T01:23:29;23.27;;;19.90;;
17625;SDS011;8931;50.042;19.930;2022-07-22T01:24:29;22.33;;;20.20;;
17625;SDS011;8931;50.042;19.930;2022-07-22T01:25:33;22.40;;;20.27;;
17625;SDS011;8931;50.042;19.930;2022-07-22T01:26:34;22.60;;;20.50;;
17625;SDS011;8931;50.042;19.930;2022-07-22T01:27:38;22.30;;;20.23;;
17625;SDS011;8931;50.042;19.930;2022-07-22T01:28:40;22.17;;;20.27;;
17625;SDS011;8931;50.042;19.930;2022-07-22T01:29:41;21.83;;;20.03;;
17625;SDS011;8931;50.042;19.930;2022-07-22T01:30:43;22.70;;;20.80;;
17625;SDS011;8931;50.042;19.930;2022-07-22T01:31:45;23.53;;;21.07;;
17625;SDS011;8931;50.042;19.930;2022-07-22T01:32:47;23.77;;;21.50;;
17625;SDS011;8931;50.042;19.930;2022-07-22T01:33:48;23.73;;;21.47;;
17625;SDS011;8931;50.042;19.930;2022-07-22T01:34:51;23.90;;;21.50;;
17625;SDS011;8931;50.042;19.930;2022-07-22T01:35:53;22.70;;;20.57;;
17625;SDS011;8931;50.042;19.930;2022-07-22T01:36:54;22.80;;;20.40;;
17625;SDS011;8931;50.042;19.930;2022-07-22T01:37:57;22.63;;;20.40;;
17625;SDS011;8931;50.042;19.930;2022-07-22T01:39:01;21.63;;;19.80;;
17625;SDS011;8931;50.042;19.930;2022-07-22T01:40:03;24.97;;;20.37;;
17625;SDS011;8931;50.042;19.930;2022-07-22T01:41:05;21.97;;;20.17;;
17625;SDS011;8931;50.042;19.930;2022-07-22T01:42:06;22.83;;;20.63;;
17625;SDS011;8931;50.042;19.930;2022-07-22T01:43:07;22.93;;;20.43;;
17625;SDS011;8931;50.042;19.930;2022-07-22T01:44:09;23.90;;;21.00;;
17625;SDS011;8931;50.042;19.930;2022-07-22T01:45:10;23.17;;;20.97;;
17625;SDS011;8931;50.042;19.930;2022-07-22T01:46:12;22.97;;;20.67;;
17625;SDS011;8931;50.042;19.930;2022-07-22T01:47:15;22.93;;;20.83;;
17625;SDS011;8931;50.042;19.930;2022-07-22T01:48:19;22.87;;;20.57;;
17625;SDS011;8931;50.042;19.930;2022-07-22T01:49:19;22.10;;;19.77;;
17625;SDS011;8931;50.042;19.930;2022-07-22T01:50:21;22.70;;;20.57;;
17625;SDS011;8931;50.042;19.930;2022-07-22T01:51:23;22.80;;;20.43;;
17625;SDS011;8931;50.042;19.930;2022-07-22T01:52:25;22.93;;;20.83;;
17625;SDS011;8931;50.042;19.930;2022-07-22T01:53:26;23.33;;;20.80;;
17625;SDS011;8931;50.042;19.930;2022-07-22T01:54:30;22.87;;;20.63;;
17625;SDS011;8931;50.042;19.930;2022-07-22T01:55:30;23.07;;;21.00;;
17625;SDS011;8931;50.042;19.930;2022-07-22T01:56:32;22.67;;;20.47;;
17625;SDS011;8931;50.042;19.930;2022-07-22T01:57:33;22.87;;;20.60;;
17625;SDS011;8931;50.042;19.930;2022-07-22T01:58:43;22.37;;;20.47;;
17625;SDS011;8931;50.042;19.930;2022-07-22T01:59:48;21.90;;;19.83;;
17625;SDS011;8931;50.042;19.930;2022-07-22T02:00:49;22.27;;;20.23;;
17625;SDS011;8931;50.042;19.930;2022-07-22T02:01:53;24.00;;;21.90;;
17625;SDS011;8931;50.042;19.930;2022-07-22T02:02:54;23.50;;;21.17;;
17625;SDS011;8931;50.042;19.930;2022-07-22T02:03:55;22.20;;;20.30;;
17625;SDS011;8931;50.042;19.930;2022-07-22T02:04:56;22.40;;;20.33;;
17625;SDS011;8931;50.042;19.930;2022-07-22T02:05:58;22.33;;;20.23;;
17625;SDS011;8931;50.042;19.930;2022-07-22T02:07:03;23.27;;;21.00;;
17625;SDS011;8931;50.042;19.930;2022-07-22T02:08:07;22.57;;;20.40;;
17625;SDS011;8931;50.042;19.930;2022-07-22T02:09:32;22.93;;;20.90;;
17625;SDS011;8931;50.042;19.930;2022-07-22T02:10:35;22.57;;;20.50;;
17625;SDS011;8931;50.042;19.930;2022-07-22T02:11:36;24.90;;;20.33;;
17625;SDS011;8931;50.042;19.930;2022-07-22T02:12:38;22.17;;;19.83;;
17625;SDS011;8931;50.042;19.930;2022-07-22T02:13:39;22.13;;;20.13;;
17625;SDS011;8931;50.042;19.930;2022-07-22T02:14:44;22.37;;;20.17;;
17625;SDS011;8931;50.042;19.930;2022-07-22T02:15:45;22.97;;;20.77;;
17625;SDS011;8931;50.042;19.930;2022-07-22T02:16:46;23.83;;;20.67;;
17625;SDS011;8931;50.042;19.930;2022-07-22T02:17:47;23.67;;;21.13;;
17625;SDS011;8931;50.042;19.930;2022-07-22T02:18:49;23.40;;;20.97;;
17625;SDS011;8931;50.042;19.930;2022-07-22T02:19:50;23.83;;;21.30;;
17625;SDS011;8931;50.042;19.930;2022-07-22T02:20:55;22.77;;;20.53;;
17625;SDS011;8931;50.042;19.930;2022-07-22T02:21:57;24.27;;;21.50;;
17625;SDS011;8931;50.042;19.930;2022-07-22T02:23:00;22.80;;;20.70;;
17625;SDS011;8931;50.042;19.930;2022-07-22T02:24:01;23.00;;;20.77;;
17625;SDS011;8931;50.042;19.930;2022-07-22T02:25:03;22.50;;;20.23;;
17625;SDS011;8931;50.042;19.930;2022-07-22T02:26:04;24.53;;;21.37;;
17625;SDS011;8931;50.042;19.930;2022-07-22T02:27:06;23.97;;;21.70;;
17625;SDS011;8931;50.042;19.930;2022-07-22T02:28:07;22.83;;;20.60;;
17625;SDS011;8931;50.042;19.930;2022-07-22T02:29:09;23.00;;;20.83;;
17625;SDS011;8931;50.042;19.930;2022-07-22T02:30:14;24.23;;;21.60;;
17625;SDS011;8931;50.042;19.930;2022-07-22T02:31:15;23.83;;;21.67;;
17625;SDS011;8931;50.042;19.930;2022-07-22T02:32:17;23.37;;;20.90;;
17625;SDS011;8931;50.042;19.930;2022-07-22T02:33:18;22.67;;;20.67;;
17625;SDS011;8931;50.042;19.930;2022-07-22T02:34:21;22.50;;;20.13;;
17625;SDS011;8931;50.042;19.930;2022-07-22T02:35:23;22.20;;;20.17;;
17625;SDS011;8931;50.042;19.930;2022-07-22T02:36:28;23.10;;;20.60;;
17625;SDS011;8931;50.042;19.930;2022-07-22T02:37:28;22.13;;;20.33;;
17625;SDS011;8931;50.042;19.930;2022-07-22T02:38:31;23.03;;;20.60;;
17625;SDS011;8931;50.042;19.930;2022-07-22T02:39:32;22.87;;;20.67;;
17625;SDS011;8931;50.042;19.930;2022-07-22T02:40:34;22.90;;;20.87;;
17625;SDS011;8931;50.042;19.930;2022-07-22T02:41:35;22.33;;;20.30;;
17625;SDS011;8931;50.042;19.930;2022-07-22T02:42:41;21.83;;;19.97;;
17625;SDS011;8931;50.042;19.930;2022-07-22T02:43:45;22.20;;;20.27;;
17625;SDS011;8931;50.042;19.930;2022-07-22T02:44:46;22.93;;;20.67;;
17625;SDS011;8931;50.042;19.930;2022-07-22T02:45:47;22.97;;;20.60;;
17625;SDS011;8931;50.042;19.930;2022-07-22T02:46:48;23.73;;;21.27;;
17625;SDS011;8931;50.042;19.930;2022-07-22T02:47:55;23.17;;;21.03;;
17625;SDS011;8931;50.042;19.930;2022-07-22T02:48:58;23.50;;;21.37;;
17625;SDS011;8931;50.042;19.930;2022-07-22T02:50:00;23.90;;;21.63;;
17625;SDS011;8931;50.042;19.930;2022-07-22T02:51:02;25.23;;;22.17;;
17625;SDS011;8931;50.042;19.930;2022-07-22T02:52:03;27.17;;;22.77;;
17625;SDS011;8931;50.042;19.930;2022-07-22T02:53:05;25.60;;;23.03;;
17625;SDS011;8931;50.042;19.930;2022-07-22T02:54:12;24.30;;;21.87;;
17625;SDS011;8931;50.042;19.930;2022-07-22T02:55:15;25.17;;;22.47;;
17625;SDS011;8931;50.042;19.930;2022-07-22T02:56:17;25.03;;;22.60;;
17625;SDS011;8931;50.042;19.930;2022-07-22T02:57:20;24.93;;;22.43;;
17625;SDS011;8931;50.042;19.930;2022-07-22T02:58:21;29.63;;;23.27;;
17625;SDS011;8931;50.042;19.930;2022-07-22T02:59:24;25.47;;;22.93;;
17625;SDS011;8931;50.042;19.930;2022-07-22T03:00:24;24.97;;;22.47;;
17625;SDS011;8931;50.042;19.930;2022-07-22T03:01:26;31.97;;;23.07;;
17625;SDS011;8931;50.042;19.930;2022-07-22T03:02:33;23.97;;;21.43;;
17625;SDS011;8931;50.042;19.930;2022-07-22T03:03:36;28.97;;;22.23;;
17625;SDS011;8931;50.042;19.930;2022-07-22T03:04:36;23.90;;;21.63;;
17625;SDS011;8931;50.042;19.930;2022-07-22T03:05:38;23.87;;;21.47;;
17625;SDS011;8931;50.042;19.930;2022-07-22T03:07:11;24.60;;;22.30;;
17625;SDS011;8931;50.042;19.930;2022-07-22T03:08:13;24.40;;;22.13;;
17625;SDS011;8931;50.042;19.930;2022-07-22T03:09:15;24.33;;;21.97;;
17625;SDS011;8931;50.042;19.930;2022-07-22T03:10:20;23.83;;;21.63;;
17625;SDS011;8931;50.042;19.930;2022-07-22T03:11:24;26.20;;;22.63;;
17625;SDS011;8931;50.042;19.930;2022-07-22T03:12:25;28.37;;;22.47;;
17625;SDS011;8931;50.042;19.930;2022-07-22T03:13:26;24.40;;;22.10;;
17625;SDS011;8931;50.042;19.930;2022-07-22T03:14:28;25.90;;;23.00;;
17625;SDS011;8931;50.042;19.930;2022-07-22T03:15:29;25.67;;;22.83;;
17625;SDS011;8931;50.042;19.930;2022-07-22T03:16:33;27.27;;;23.60;;
17625;SDS011;8931;50.042;19.930;2022-07-22T03:17:37;25.30;;;22.73;;
17625;SDS011;8931;50.042;19.930;2022-07-22T03:18:40;25.33;;;22.90;;
17625;SDS011;8931;50.042;19.930;2022-07-22T03:19:42;25.93;;;23.30;;
17625;SDS011;8931;50.042;19.930;2022-07-22T03:20:42;26.00;;;23.40;;
17625;SDS011;8931;50.042;19.930;2022-07-22T03:21:44;25.93;;;23.43;;
17625;SDS011;8931;50.042;19.930;2022-07-22T03:22:46;26.17;;;23.40;;
17625;SDS011;8931;50.042;19.930;2022-07-22T03:23:50;26.37;;;22.90;;
17625;SDS011;8931;50.042;19.930;2022-07-22T03:24:56;27.03;;;24.20;;
17625;SDS011;8931;50.042;19.930;2022-07-22T03:25:57;30.20;;;23.53;;
17625;SDS011;8931;50.042;19.930;2022-07-22T03:26:59;26.10;;;23.40;;
17625;SDS011;8931;50.042;19.930;2022-07-22T03:28:00;25.50;;;23.00;;
17625;SDS011;8931;50.042;19.930;2022-07-22T03:29:02;26.23;;;23.47;;
17625;SDS011;8931;50.042;19.930;2022-07-22T03:30:03;25.17;;;22.63;;
17625;SDS011;8931;50.042;19.930;2022-07-22T03:31:09;25.63;;;23.13;;
17625;SDS011;8931;50.042;19.930;2022-07-22T03:32:10;25.83;;;23.17;;
17625;SDS011;8931;50.042;19.930;2022-07-22T03:33:17;25.50;;;23.00;;
17625;SDS011;8931;50.042;19.930;2022-07-22T03:34:18;25.20;;;22.63;;
17625;SDS011;8931;50.042;19.930;2022-07-22T03:35:28;26.20;;;23.80;;
17625;SDS011;8931;50.042;19.930;2022-07-22T03:36:29;25.33;;;22.80;;
17625;SDS011;8931;50.042;19.930;2022-07-22T03:37:32;26.53;;;23.87;;
17625;SDS011;8931;50.042;19.930;2022-07-22T03:38:35;30.93;;;24.57;;
17625;SDS011;8931;50.042;19.930;2022-07-22T03:39:37;26.40;;;23.60;;
17625;SDS011;8931;50.042;19.930;2022-07-22T03:40:40;26.67;;;24.07;;
17625;SDS011;8931;50.042;19.930;2022-07-22T03:41:40;29.77;;;24.70;;
17625;SDS011;8931;50.042;19.930;2022-07-22T03:42:42;26.50;;;24.00;;
17625;SDS011;8931;50.042;19.930;2022-07-22T03:43:43;26.30;;;23.53;;
17625;SDS011;8931;50.042;19.930;2022-07-22T03:44:45;26.63;;;23.77;;
17625;SDS011;8931;50.042;19.930;2022-07-22T03:45:47;31.20;;;24.53;;
17625;SDS011;8931;50.042;19.930;2022-07-22T03:46:49;27.43;;;24.70;;
17625;SDS011;8931;50.042;19.930;2022-07-22T03:47:49;34.67;;;25.73;;
17625;SDS011;8931;50.042;19.930;2022-07-22T03:48:52;26.83;;;24.33;;
17625;SDS011;8931;50.042;19.930;2022-07-22T03:49:54;27.07;;;24.47;;
17625;SDS011;8931;50.042;19.930;2022-07-22T03:51:01;26.43;;;23.83;;
17625;SDS011;8931;50.042;19.930;2022-07-22T03:52:02;26.43;;;23.67;;
17625;SDS011;8931;50.042;19.930;2022-07-22T03:53:07;27.70;;;24.87;;
17625;SDS011;8931;50.042;19.930;2022-07-22T03:54:11;27.27;;;24.40;;
17625;SDS011;8931;50.042;19.930;2022-07-22T03:55:15;26.93;;;24.00;;
17625;SDS011;8931;50.042;19.930;2022-07-22T03:56:19;27.50;;;25.00;;
17625;SDS011;8931;50.042;19.930;2022-07-22T03:57:22;27.00;;;24.20;;
17625;SDS011;8931;50.042;19.930;2022-07-22T03:58:33;28.20;;;24.40;;
17625;SDS011;8931;50.042;19.930;2022-07-22T03:59:35;26.80;;;24.20;;
17625;SDS011;8931;50.042;19.930;2022-07-22T04:00:38;27.43;;;24.47;;
17625;SDS011;8931;50.042;19.930;2022-07-22T04:01:40;28.40;;;25.37;;
17625;SDS011;8931;50.042;19.930;2022-07-22T04:02:43;27.30;;;24.70;;
17625;SDS011;8931;50.042;19.930;2022-07-22T04:04:11;26.90;;;24.20;;
17625;SDS011;8931;50.042;19.930;2022-07-22T04:05:16;30.17;;;24.50;;
17625;SDS011;8931;50.042;19.930;2022-07-22T04:06:17;26.97;;;24.33;;
17625;SDS011;8931;50.042;19.930;2022-07-22T04:07:25;32.00;;;24.63;;
17625;SDS011;8931;50.042;19.930;2022-07-22T04:08:26;28.90;;;25.77;;
17625;SDS011;8931;50.042;19.930;2022-07-22T04:09:28;27.93;;;24.77;;
17625;SDS011;8931;50.042;19.930;2022-07-22T04:10:29;28.03;;;25.10;;
17625;SDS011;8931;50.042;19.930;2022-07-22T04:11:33;25.67;;;23.13;;
17625;SDS011;8931;50.042;19.930;2022-07-22T04:12:34;26.93;;;24.33;;
17625;SDS011;8931;50.042;19.930;2022-07-22T04:13:50;25.37;;;22.97;;
17625;SDS011;8931;50.042;19.930;2022-07-22T04:14:51;26.17;;;23.60;;
17625;SDS011;8931;50.042;19.930;2022-07-22T04:15:52;28.20;;;24.57;;
17625;SDS011;8931;50.042;19.930;2022-07-22T04:16:53;26.17;;;23.67;;
17625;SDS011;8931;50.042;19.930;2022-07-22T04:17:54;26.57;;;23.57;;
17625;SDS011;8931;50.042;19.930;2022-07-22T04:18:56;26.50;;;23.97;;
17625;SDS011;8931;50.042;19.930;2022-07-22T04:20:28;26.13;;;23.57;;
17625;SDS011;8931;50.042;19.930;2022-07-22T04:21:59;28.47;;;23.87;;
17625;SDS011;8931;50.042;19.930;2022-07-22T04:23:02;25.90;;;23.50;;
17625;SDS011;8931;50.042;19.930;2022-07-22T04:24:03;26.57;;;23.73;;
17625;SDS011;8931;50.042;19.930;2022-07-22T04:25:06;27.37;;;24.57;;
17625;SDS011;8931;50.042;19.930;2022-07-22T04:26:09;26.80;;;24.13;;
17625;SDS011;8931;50.042;19.930;2022-07-22T04:27:13;26.03;;;23.43;;
17625;SDS011;8931;50.042;19.930;2022-07-22T04:28:15;26.47;;;23.83;;
17625;SDS011;8931;50.042;19.930;2022-07-22T04:29:17;27.27;;;24.47;;
17625;SDS011;8931;50.042;19.930;2022-07-22T04:30:17;30.03;;;24.90;;
17625;SDS011;8931;50.042;19.930;2022-07-22T04:31:22;29.70;;;25.47;;
17625;SDS011;8931;50.042;19.930;2022-07-22T04:32:29;30.73;;;24.40;;
17625;SDS011;8931;50.042;19.930;2022-07-22T04:33:36;25.63;;;23.23;;
17625;SDS011;8931;50.042;19.930;2022-07-22T04:34:37;27.43;;;24.57;;
17625;SDS011;8931;50.042;19.930;2022-07-22T04:35:38;26.03;;;23.80;;
17625;SDS011;8931;50.042;19.930;2022-07-22T04:36:48;26.10;;;23.63;;
17625;SDS011;8931;50.042;19.930;2022-07-22T04:37:50;26.50;;;23.87;;
17625;SDS011;8931;50.042;19.930;2022-07-22T04:38:51;26.77;;;24.10;;
17625;SDS011;8931;50.042;19.930;2022-07-22T04:39:55;26.63;;;23.57;;
17625;SDS011;8931;50.042;19.930;2022-07-22T04:40:56;26.97;;;24.00;;
17625;SDS011;8931;50.042;19.930;2022-07-22T04:41:59;26.70;;;23.90;;
17625;SDS011;8931;50.042;19.930;2022-07-22T04:43:03;27.13;;;24.27;;
17625;SDS011;8931;50.042;19.930;2022-07-22T04:44:05;28.37;;;24.23;;
17625;SDS011;8931;50.042;19.930;2022-07-22T04:45:07;26.63;;;24.30;;
17625;SDS011;8931;50.042;19.930;2022-07-22T04:46:10;27.10;;;23.50;;
17625;SDS011;8931;50.042;19.930;2022-07-22T04:47:15;25.73;;;23.23;;
17625;SDS011;8931;50.042;19.930;2022-07-22T04:48:18;26.27;;;23.53;;
17625;SDS011;8931;50.042;19.930;2022-07-22T04:49:19;25.40;;;22.90;;
17625;SDS011;8931;50.042;19.930;2022-07-22T04:50:20;26.90;;;24.07;;
17625;SDS011;8931;50.042;19.930;2022-07-22T04:51:28;25.07;;;22.57;;
17625;SDS011;8931;50.042;19.930;2022-07-22T04:52:35;24.73;;;22.37;;
17625;SDS011;8931;50.042;19.930;2022-07-22T04:53:38;24.43;;;22.03;;
17625;SDS011;8931;50.042;19.930;2022-07-22T04:54:39;25.67;;;23.00;;
17625;SDS011;8931;50.042;19.930;2022-07-22T04:55:41;28.90;;;23.67;;
17625;SDS011;8931;50.042;19.930;2022-07-22T04:56:43;25.33;;;22.93;;
17625;SDS011;8931;50.042;19.930;2022-07-22T04:57:44;25.30;;;22.87;;
17625;SDS011;8931;50.042;19.930;2022-07-22T04:58:47;25.37;;;22.87;;
17625;SDS011;8931;50.042;19.930;2022-07-22T04:59:47;25.33;;;22.67;;
17625;SDS011;8931;50.042;19.930;2022-07-22T05:00:49;25.27;;;22.70;;
17625;SDS011;8931;50.042;19.930;2022-07-22T05:01:50;26.50;;;23.70;;
17625;SDS011;8931;50.042;19.930;2022-07-22T05:02:52;25.37;;;23.03;;
17625;SDS011;8931;50.042;19.930;2022-07-22T05:03:54;24.20;;;22.00;;
17625;SDS011;8931;50.042;19.930;2022-07-22T05:04:56;25.63;;;22.73;;
17625;SDS011;8931;50.042;19.930;2022-07-22T05:05:57;24.80;;;22.17;;
17625;SDS011;8931;50.042;19.930;2022-07-22T05:07:05;25.33;;;22.80;;
17625;SDS011;8931;50.042;19.930;2022-07-22T05:08:06;24.70;;;22.37;;
17625;SDS011;8931;50.042;19.930;2022-07-22T05:09:09;25.30;;;23.20;;
17625;SDS011;8931;50.042;19.930;2022-07-22T05:10:09;25.93;;;23.70;;
17625;SDS011;8931;50.042;19.930;2022-07-22T05:11:11;25.07;;;22.77;;
17625;SDS011;8931;50.042;19.930;2022-07-22T05:12:12;25.10;;;22.87;;
17625;SDS011;8931;50.042;19.930;2022-07-22T05:13:14;25.03;;;22.83;;
17625;SDS011;8931;50.042;19.930;2022-07-22T05:14:17;25.17;;;23.07;;
17625;SDS011;8931;50.042;19.930;2022-07-22T05:15:20;29.80;;;23.33;;
17625;SDS011;8931;50.042;19.930;2022-07-22T05:16:21;26.50;;;23.47;;
17625;SDS011;8931;50.042;19.930;2022-07-22T05:17:23;25.77;;;23.27;;
17625;SDS011;8931;50.042;19.930;2022-07-22T05:18:50;25.10;;;22.67;;
17625;SDS011;8931;50.042;19.930;2022-07-22T05:19:52;24.83;;;22.63;;
17625;SDS011;8931;50.042;19.930;2022-07-22T05:20:53;25.00;;;22.70;;
17625;SDS011;8931;50.042;19.930;2022-07-22T05:21:57;25.83;;;23.03;;
17625;SDS011;8931;50.042;19.930;2022-07-22T05:22:58;25.67;;;23.07;;
17625;SDS011;8931;50.042;19.930;2022-07-22T05:24:03;24.17;;;22.07;;
17625;SDS011;8931;50.042;19.930;2022-07-22T05:25:04;26.50;;;23.67;;
17625;SDS011;8931;50.042;19.930;2022-07-22T05:26:06;25.70;;;23.33;;
17625;SDS011;8931;50.042;19.930;2022-07-22T05:27:07;25.80;;;23.17;;
17625;SDS011;8931;50.042;19.930;2022-07-22T05:28:09;24.73;;;22.73;;
17625;SDS011;8931;50.042;19.930;2022-07-22T05:29:14;26.43;;;23.67;;
17625;SDS011;8931;50.042;19.930;2022-07-22T05:30:17;25.90;;;23.33;;
17625;SDS011;8931;50.042;19.930;2022-07-22T05:31:18;25.17;;;22.87;;
17625;SDS011;8931;50.042;19.930;2022-07-22T05:32:20;26.33;;;23.87;;
17625;SDS011;8931;50.042;19.930;2022-07-22T05:33:23;26.70;;;23.83;;
17625;SDS011;8931;50.042;19.930;2022-07-22T05:35:02;25.57;;;23.27;;
17625;SDS011;8931;50.042;19.930;2022-07-22T05:36:05;26.40;;;24.10;;
17625;SDS011;8931;50.042;19.930;2022-07-22T05:37:11;27.07;;;24.23;;
17625;SDS011;8931;50.042;19.930;2022-07-22T05:38:13;26.43;;;23.93;;
17625;SDS011;8931;50.042;19.930;2022-07-22T05:39:14;26.97;;;24.30;;
17625;SDS011;8931;50.042;19.930;2022-07-22T05:40:16;27.33;;;24.47;;
17625;SDS011;8931;50.042;19.930;2022-07-22T05:41:17;26.13;;;23.73;;
17625;SDS011;8931;50.042;19.930;2022-07-22T05:42:20;26.53;;;23.80;;
17625;SDS011;8931;50.042;19.930;2022-07-22T05:43:23;26.47;;;23.87;;
17625;SDS011;8931;50.042;19.930;2022-07-22T05:44:23;25.53;;;23.00;;
17625;SDS011;8931;50.042;19.930;2022-07-22T05:45:27;26.30;;;23.90;;
17625;SDS011;8931;50.042;19.930;2022-07-22T05:46:27;25.53;;;23.13;;
17625;SDS011;8931;50.042;19.930;2022-07-22T05:47:29;26.27;;;23.73;;
17625;SDS011;8931;50.042;19.930;2022-07-22T05:48:30;24.93;;;22.83;;
17625;SDS011;8931;50.042;19.930;2022-07-22T05:49:32;26.23;;;23.73;;
17625;SDS011;8931;50.042;19.930;2022-07-22T05:50:37;26.50;;;24.00;;
17625;SDS011;8931;50.042;19.930;2022-07-22T05:51:39;25.70;;;23.30;;
17625;SDS011;8931;50.042;19.930;2022-07-22T05:52:40;26.70;;;24.00;;
17625;SDS011;8931;50.042;19.930;2022-07-22T05:53:42;25.90;;;23.23;;
17625;SDS011;8931;50.042;19.930;2022-07-22T05:54:45;26.00;;;23.30;;
17625;SDS011;8931;50.042;19.930;2022-07-22T05:55:48;24.50;;;22.40;;
17625;SDS011;8931;50.042;19.930;2022-07-22T05:56:52;26.40;;;23.70;;
17625;SDS011;8931;50.042;19.930;2022-07-22T05:57:53;27.03;;;24.13;;
17625;SDS011;8931;50.042;19.930;2022-07-22T05:58:54;27.37;;;24.67;;
17625;SDS011;8931;50.042;19.930;2022-07-22T05:59:56;26.33;;;23.83;;
17625;SDS011;8931;50.042;19.930;2022-07-22T06:00:59;26.97;;;24.13;;
17625;SDS011;8931;50.042;19.930;2022-07-22T06:02:02;27.93;;;24.27;;
17625;SDS011;8931;50.042;19.930;2022-07-22T06:03:24;27.53;;;24.50;;
17625;SDS011;8931;50.042;19.930;2022-07-22T06:04:24;27.23;;;24.30;;
17625;SDS011;8931;50.042;19.930;2022-07-22T06:05:27;27.20;;;24.47;;
17625;SDS011;8931;50.042;19.930;2022-07-22T06:06:29;26.67;;;24.10;;
17625;SDS011;8931;50.042;19.930;2022-07-22T06:07:30;28.83;;;24.70;;
17625;SDS011;8931;50.042;19.930;2022-07-22T06:08:35;28.07;;;25.50;;